createdAt,value
2023-05-16T00:02:02.411Z,21.52
2023-05-16T00:04:29.735Z,21.51
2023-05-16T00:06:57.256Z,21.50
2023-05-16T00:09:24.331Z,21.52
2023-05-16T00:11:51.491Z,21.56
2023-05-16T00:14:19.990Z,21.54
2023-05-16T00:16:47.530Z,21.58
2023-05-16T00:19:15.590Z,21.96
2023-05-16T00:21:44.894Z,22.41
2023-05-16T00:24:12.301Z,22.44
2023-05-16T00:26:39.386Z,22.43
2023-05-16T00:29:07.169Z,22.30
2023-05-16T00:31:34.544Z,21.56
2023-05-16T00:34:01.697Z,21.69
2023-05-16T00:36:29.237Z,21.50
2023-05-16T00:38:56.588Z,21.47
2023-05-16T00:41:23.841Z,21.58
2023-05-16T00:43:51.181Z,21.46
2023-05-16T00:46:18.385Z,21.53
2023-05-16T00:48:45.628Z,21.47
2023-05-16T00:51:12.804Z,21.73
2023-05-16T00:53:39.813Z,21.36
2023-05-16T00:56:07.564Z,21.29
2023-05-16T00:58:34.753Z,21.21
2023-05-16T01:01:04.096Z,21.17
2023-05-16T01:03:31.788Z,21.16
2023-05-16T01:05:59.944Z,21.19
2023-05-16T01:08:27.257Z,21.15
2023-05-16T01:11:08.100Z,21.19
2023-05-16T01:13:47.544Z,21.20
2023-05-16T01:16:23.596Z,21.14
2023-05-16T01:19:00.294Z,21.12
2023-05-16T01:21:44.404Z,21.15
2023-05-16T01:24:22.272Z,21.13
2023-05-16T01:26:50.247Z,21.10
2023-05-16T01:29:17.833Z,21.06
2023-05-16T01:31:45.004Z,21.35
2023-05-16T01:34:13.007Z,21.26
2023-05-16T01:37:03.224Z,21.10
2023-05-16T01:39:53.390Z,21.11
2023-05-16T01:42:20.520Z,21.05
2023-05-16T01:45:00.728Z,20.99
2023-05-16T01:47:28.043Z,20.97
2023-05-16T01:50:10.800Z,20.99
2023-05-16T01:52:47.990Z,20.98
2023-05-16T01:55:22.186Z,20.88
2023-05-16T01:57:49.346Z,20.82
2023-05-16T02:00:16.655Z,20.79
2023-05-16T02:02:43.695Z,20.80
2023-05-16T02:05:10.737Z,20.78
2023-05-16T02:07:37.993Z,20.79
2023-05-16T02:10:05.997Z,21.05
2023-05-16T02:12:35.528Z,21.12
2023-05-16T02:15:02.917Z,21.78
2023-05-16T02:17:30.316Z,21.91
2023-05-16T02:19:58.025Z,21.94
2023-05-16T02:22:25.239Z,22.00
2023-05-16T02:24:54.184Z,22.00
2023-05-16T02:27:21.387Z,21.95
2023-05-16T02:29:48.566Z,21.97
2023-05-16T02:32:15.848Z,21.96
2023-05-16T02:34:43.373Z,21.98
2023-05-16T02:37:13.116Z,21.98
2023-05-16T02:39:40.598Z,21.99
2023-05-16T02:42:07.674Z,21.98
2023-05-16T02:44:34.933Z,21.98
2023-05-16T02:47:02.006Z,21.98
2023-05-16T02:49:29.129Z,21.96
2023-05-16T02:51:56.185Z,21.96
2023-05-16T02:54:23.230Z,21.95
2023-05-16T02:56:50.464Z,21.97
2023-05-16T02:59:19.816Z,21.96
2023-05-16T03:01:47.106Z,21.92
2023-05-16T03:04:14.411Z,21.89
2023-05-16T03:06:41.604Z,21.88
2023-05-16T03:09:08.943Z,21.89
2023-05-16T03:11:37.006Z,21.88
2023-05-16T03:14:04.276Z,21.87
2023-05-16T03:16:31.603Z,21.87
2023-05-16T03:18:58.776Z,21.88
2023-05-16T03:21:27.487Z,21.90
2023-05-16T03:23:55.364Z,21.92
2023-05-16T03:26:22.946Z,21.97
2023-05-16T03:28:51.550Z,21.99
2023-05-16T03:31:18.941Z,21.98
2023-05-16T03:33:46.428Z,22.00
2023-05-16T03:36:13.494Z,22.02
2023-05-16T03:38:40.859Z,22.02
2023-05-16T03:41:08.247Z,22.03
2023-05-16T03:43:35.337Z,22.01
2023-05-16T03:46:02.794Z,22.06
2023-05-16T03:48:29.976Z,22.06
2023-05-16T03:50:57.408Z,22.08
2023-05-16T03:53:24.487Z,22.09
2023-05-16T03:55:51.673Z,22.07
2023-05-16T03:58:18.938Z,22.06
2023-05-16T04:00:47.300Z,22.07
2023-05-16T04:03:14.374Z,22.06
2023-05-16T04:05:41.466Z,22.11
2023-05-16T04:08:08.557Z,22.14
2023-05-16T04:10:36.587Z,22.16
2023-05-16T04:13:03.573Z,22.19
2023-05-16T04:15:30.748Z,22.16
2023-05-16T04:17:58.147Z,22.19
2023-05-16T04:20:25.421Z,22.19
2023-05-16T04:22:52.563Z,22.17
2023-05-16T04:25:19.689Z,22.19
2023-05-16T04:27:46.991Z,22.19
2023-05-16T04:30:14.748Z,22.22
2023-05-16T04:32:42.084Z,22.24
2023-05-16T04:35:09.571Z,22.20
2023-05-16T04:37:37.022Z,22.22
2023-05-16T04:40:04.498Z,22.20
2023-05-16T04:42:32.162Z,22.21
2023-05-16T04:44:59.269Z,22.25
2023-05-16T04:47:26.668Z,22.21
2023-05-16T04:49:53.750Z,22.20
2023-05-16T04:52:21.160Z,22.19
2023-05-16T04:54:51.205Z,22.16
2023-05-16T04:57:18.440Z,22.18
2023-05-16T04:59:45.613Z,22.24
2023-05-16T05:02:12.863Z,22.26
2023-05-16T05:04:40.054Z,22.25
2023-05-16T05:07:08.420Z,22.26
2023-05-16T05:09:35.551Z,22.27
2023-05-16T05:12:02.712Z,22.27
2023-05-16T05:14:29.882Z,22.28
2023-05-16T05:16:57.328Z,22.30
2023-05-16T05:19:24.452Z,22.27
2023-05-16T05:21:51.570Z,22.27
2023-05-16T05:24:19.312Z,22.27
2023-05-16T05:26:46.296Z,22.25
2023-05-16T05:29:13.510Z,22.25
2023-05-16T05:31:41.039Z,22.24
2023-05-16T05:34:08.127Z,22.20
2023-05-16T05:36:35.348Z,22.15
2023-05-16T05:39:02.397Z,22.10
2023-05-16T05:41:29.909Z,22.04
2023-05-16T05:43:56.995Z,21.99
2023-05-16T05:46:24.957Z,21.94
2023-05-16T05:48:52.232Z,21.88
2023-05-16T05:51:19.645Z,21.87
2023-05-16T05:53:47.051Z,21.79
2023-05-16T05:56:14.170Z,21.76
2023-05-16T05:58:42.226Z,21.77
2023-05-16T06:01:11.163Z,21.74
2023-05-16T06:03:38.632Z,21.69
2023-05-16T06:06:06.326Z,21.66
2023-05-16T06:08:33.372Z,21.67
2023-05-16T06:11:00.789Z,21.67
2023-05-16T06:13:28.220Z,21.70
2023-05-16T06:15:55.317Z,21.76
2023-05-16T06:18:22.527Z,21.78
2023-05-16T06:20:49.680Z,21.82
2023-05-16T06:23:17.276Z,21.82
2023-05-16T06:25:45.179Z,21.84
2023-05-16T06:28:12.254Z,21.81
2023-05-16T06:30:39.256Z,21.63
2023-05-16T06:33:06.543Z,21.25
2023-05-16T06:35:33.663Z,21.21
2023-05-16T06:38:00.793Z,21.27
2023-05-16T06:40:27.984Z,21.31
2023-05-16T06:42:55.220Z,21.35
2023-05-16T06:45:22.620Z,21.38
2023-05-16T06:47:49.870Z,21.40
2023-05-16T06:50:17.805Z,21.43
2023-05-16T06:52:44.805Z,21.43
2023-05-16T06:55:12.628Z,21.52
2023-05-16T06:57:39.863Z,21.93
2023-05-16T07:00:08.587Z,22.11
2023-05-16T07:02:36.000Z,22.16
2023-05-16T07:05:03.444Z,22.27
2023-05-16T07:07:30.609Z,22.29
2023-05-16T07:09:57.785Z,22.33
2023-05-16T07:12:24.963Z,22.36
2023-05-16T07:14:52.254Z,22.37
2023-05-16T07:17:19.473Z,22.40
2023-05-16T07:19:46.820Z,22.52
2023-05-16T07:22:13.978Z,22.62
2023-05-16T07:24:41.170Z,22.61
2023-05-16T07:27:08.720Z,22.57
2023-05-16T07:29:37.574Z,22.62
2023-05-16T07:32:05.327Z,22.63
2023-05-16T07:34:32.512Z,22.67
2023-05-16T07:36:59.817Z,22.78
2023-05-16T07:39:27.122Z,22.79
2023-05-16T07:41:54.345Z,22.75
2023-05-16T07:44:21.832Z,22.74
2023-05-16T07:46:48.983Z,22.77
2023-05-16T07:49:16.444Z,22.76
2023-05-16T07:51:44.004Z,22.73
2023-05-16T07:54:11.153Z,22.73
2023-05-16T07:56:38.371Z,22.74
2023-05-16T07:59:06.243Z,22.77
2023-05-16T08:01:33.314Z,22.79
2023-05-16T08:04:00.854Z,22.85
2023-05-16T08:06:28.226Z,22.83
2023-05-16T08:08:55.529Z,22.82
2023-05-16T08:11:22.745Z,22.88
2023-05-16T08:13:50.350Z,22.86
2023-05-16T08:16:17.721Z,22.86
2023-05-16T08:18:45.011Z,22.88
2023-05-16T08:21:14.310Z,22.99
2023-05-16T08:23:41.435Z,23.04
2023-05-16T08:26:08.740Z,23.12
2023-05-16T08:28:36.329Z,23.21
2023-05-16T08:31:03.351Z,23.29
2023-05-16T08:33:30.607Z,23.38
2023-05-16T08:35:57.691Z,23.47
2023-05-16T08:38:24.830Z,23.55
2023-05-16T08:40:52.092Z,23.64
2023-05-16T08:43:19.343Z,23.73
2023-05-16T08:45:46.548Z,23.81
2023-05-16T08:48:13.726Z,23.89
2023-05-16T08:50:42.933Z,23.99
2023-05-16T08:53:10.583Z,24.09
2023-05-16T08:55:38.055Z,24.18
2023-05-16T08:58:05.373Z,24.26
2023-05-16T09:00:32.644Z,24.24
2023-05-16T09:02:59.879Z,24.26
2023-05-16T09:05:28.086Z,24.28
2023-05-16T09:07:55.469Z,24.28
2023-05-16T09:10:22.941Z,24.20
2023-05-16T09:12:50.347Z,24.19
2023-05-16T09:15:18.628Z,24.18
2023-05-16T09:17:47.074Z,24.16
2023-05-16T09:20:18.774Z,24.15
2023-05-16T09:22:53.192Z,24.17
2023-05-16T09:25:29.578Z,24.12
2023-05-16T09:28:02.776Z,24.18
2023-05-16T09:30:32.258Z,24.27
2023-05-16T09:32:59.686Z,24.37
2023-05-16T09:37:57.235Z,24.42
2023-05-16T09:40:24.600Z,24.44
2023-05-16T09:43:07.277Z,24.38
2023-05-16T09:48:28.803Z,23.62
2023-05-16T09:50:57.181Z,24.47
2023-05-16T09:53:27.941Z,24.49
2023-05-16T09:56:05.304Z,24.44
2023-05-16T09:58:33.160Z,24.48
2023-05-16T10:01:00.348Z,24.52
2023-05-16T10:03:28.387Z,24.49
2023-05-16T10:05:56.114Z,24.33
2023-05-16T10:08:26.706Z,24.25
2023-05-16T10:10:55.511Z,24.26
2023-05-16T10:13:26.863Z,24.27
2023-05-16T10:15:55.976Z,24.26
2023-05-16T10:18:23.678Z,24.22
2023-05-16T10:20:53.294Z,24.16
2023-05-16T10:23:21.385Z,24.12
2023-05-16T10:25:49.355Z,24.07
2023-05-16T10:28:16.963Z,24.06
2023-05-16T10:30:46.043Z,23.98
2023-05-16T10:33:17.559Z,23.98
2023-05-16T10:35:45.231Z,23.88
2023-05-16T10:38:13.977Z,23.81
2023-05-16T10:40:41.361Z,23.80
2023-05-16T10:43:09.587Z,23.81
2023-05-16T10:45:42.051Z,23.83
2023-05-16T10:48:10.956Z,23.85
2023-05-16T10:50:39.254Z,23.91
2023-05-16T10:53:19.003Z,23.96
2023-05-16T10:56:01.786Z,24.07
2023-05-16T10:58:35.400Z,24.22
2023-05-16T11:01:41.620Z,24.34
2023-05-16T11:04:12.614Z,24.50
2023-05-16T11:06:42.586Z,24.60
2023-05-16T11:09:15.738Z,24.66
2023-05-16T11:11:49.646Z,24.75
2023-05-16T11:14:42.655Z,24.81
2023-05-16T11:17:22.152Z,24.87
2023-05-16T11:19:56.096Z,24.88
2023-05-16T11:22:25.243Z,24.87
2023-05-16T11:25:02.159Z,24.89
2023-05-16T11:27:30.050Z,24.95
2023-05-16T11:30:06.581Z,24.94
2023-05-16T11:32:35.034Z,24.94
2023-05-16T11:35:02.562Z,24.96
2023-05-16T11:37:29.943Z,24.94
2023-05-16T11:40:01.633Z,25.00
2023-05-16T11:42:34.758Z,25.12
2023-05-16T11:45:09.401Z,25.17
2023-05-16T11:47:37.601Z,25.19
2023-05-16T11:50:16.316Z,25.20
2023-05-16T11:52:44.855Z,25.23
2023-05-16T11:55:12.081Z,25.17
2023-05-16T11:57:39.886Z,25.17
2023-05-16T12:00:18.687Z,25.19
2023-05-16T12:02:47.992Z,25.22
2023-05-16T12:05:16.085Z,25.26
2023-05-16T12:07:44.885Z,25.31
2023-05-16T12:10:14.080Z,25.31
2023-05-16T12:12:42.606Z,25.28
2023-05-16T12:15:10.039Z,25.27
2023-05-16T12:17:37.820Z,25.24
2023-05-16T12:20:11.841Z,25.24
2023-05-16T12:22:43.437Z,25.29
2023-05-16T12:25:24.334Z,25.26
2023-05-16T12:27:53.584Z,25.22
2023-05-16T12:30:23.195Z,25.25
2023-05-16T12:33:07.667Z,25.26
2023-05-16T12:35:35.859Z,25.33
2023-05-16T12:38:07.984Z,25.40
2023-05-16T12:40:37.320Z,25.46
2023-05-16T12:43:04.691Z,25.50
2023-05-16T12:45:35.224Z,25.56
2023-05-16T12:48:09.113Z,25.60
2023-05-16T12:50:37.098Z,25.64
2023-05-16T12:53:04.790Z,25.60
2023-05-16T12:55:32.428Z,25.59
2023-05-16T12:57:59.581Z,25.59
2023-05-16T13:00:27.181Z,25.57
2023-05-16T13:02:54.883Z,25.53
2023-05-16T13:05:23.665Z,25.54
2023-05-16T13:07:53.819Z,25.60
2023-05-16T13:10:21.091Z,25.69
2023-05-16T13:12:48.307Z,25.72
2023-05-16T13:15:15.400Z,25.81
2023-05-16T13:17:47.853Z,25.91
2023-05-16T13:20:15.517Z,25.98
2023-05-16T13:22:43.287Z,26.07
2023-05-16T13:25:10.963Z,26.18
2023-05-16T13:27:38.430Z,26.26
2023-05-16T13:30:06.299Z,26.33
2023-05-16T13:32:34.193Z,26.40
2023-05-16T13:35:01.339Z,26.48
2023-05-16T13:37:28.544Z,26.55
2023-05-16T13:39:56.340Z,26.54
2023-05-16T13:42:26.582Z,26.58
2023-05-16T13:44:53.804Z,26.65
2023-05-16T13:47:21.103Z,26.73
2023-05-16T13:49:49.073Z,26.79
2023-05-16T13:52:16.667Z,26.78
2023-05-16T13:54:43.871Z,26.79
2023-05-16T13:57:11.785Z,26.80
2023-05-16T14:00:04.008Z,26.85
2023-05-16T14:02:26.951Z,26.89
2023-05-16T14:04:54.345Z,26.88
2023-05-16T14:07:21.794Z,26.84
2023-05-16T14:09:49.124Z,26.83
2023-05-16T14:12:16.263Z,26.80
2023-05-16T14:14:43.340Z,26.73
2023-05-16T14:17:10.657Z,26.66
2023-05-16T14:19:37.836Z,26.64
2023-05-16T14:22:05.284Z,26.58
2023-05-16T14:24:32.630Z,26.56
2023-05-16T14:27:00.601Z,26.52
2023-05-16T14:29:28.550Z,26.47
2023-05-16T14:31:56.939Z,26.45
2023-05-16T14:34:24.139Z,26.43
2023-05-16T14:36:52.182Z,26.40
2023-05-16T14:39:19.467Z,26.35
2023-05-16T14:41:47.074Z,26.34
2023-05-16T14:44:14.265Z,26.36
2023-05-16T14:46:41.758Z,26.37
2023-05-16T14:49:09.377Z,26.41
2023-05-16T14:51:36.658Z,26.39
2023-05-16T14:54:04.397Z,26.38
2023-05-16T14:56:32.261Z,26.39
2023-05-16T14:59:00.523Z,26.35
2023-05-16T15:01:27.873Z,26.39
2023-05-16T15:03:56.398Z,26.39
2023-05-16T15:06:27.070Z,26.38
2023-05-16T15:08:55.251Z,26.42
2023-05-16T15:11:24.828Z,26.39
2023-05-16T15:13:52.039Z,26.40
2023-05-16T15:16:19.720Z,26.39
2023-05-16T15:18:47.045Z,26.37
2023-05-16T15:21:14.382Z,26.39
2023-05-16T15:23:42.884Z,26.40
2023-05-16T15:26:09.971Z,26.40
2023-05-16T15:28:37.168Z,26.40
2023-05-16T15:31:07.365Z,26.41
2023-05-16T15:33:34.663Z,26.40
2023-05-16T15:36:01.791Z,26.43
2023-05-16T15:38:29.358Z,26.46
2023-05-16T15:41:14.211Z,26.47
2023-05-16T15:43:44.183Z,26.46
2023-05-16T15:46:11.577Z,26.42
2023-05-16T15:48:42.990Z,26.35
2023-05-16T15:51:11.624Z,26.34
2023-05-16T15:53:38.858Z,26.30
2023-05-16T15:56:07.197Z,26.27
2023-05-16T15:58:34.747Z,26.20
2023-05-16T16:01:02.446Z,26.18
2023-05-16T16:03:30.001Z,26.13
2023-05-16T16:05:57.673Z,26.10
2023-05-16T16:08:25.568Z,26.09
2023-05-16T16:10:52.552Z,26.07
2023-05-16T16:13:19.898Z,26.07
2023-05-16T16:15:47.074Z,25.95
2023-05-16T16:18:14.631Z,25.92
2023-05-16T16:20:42.596Z,25.87
2023-05-16T16:23:10.160Z,25.84
2023-05-16T16:25:37.353Z,25.83
2023-05-16T16:28:05.028Z,25.81
2023-05-16T16:30:32.098Z,25.79
2023-05-16T16:32:59.447Z,25.74
2023-05-16T16:35:27.250Z,25.71
2023-05-16T16:38:06.250Z,25.69
2023-05-16T16:40:34.484Z,25.67
2023-05-16T16:43:02.657Z,25.61
2023-05-16T16:45:30.291Z,25.58
2023-05-16T16:47:58.209Z,25.55
2023-05-16T16:50:25.553Z,25.50
2023-05-16T16:52:54.016Z,25.40
2023-05-16T16:55:21.593Z,25.40
2023-05-16T16:57:48.746Z,25.36
2023-05-16T17:00:16.412Z,25.33
2023-05-16T17:02:43.871Z,25.27
2023-05-16T17:05:11.162Z,25.23
2023-05-16T17:07:38.490Z,25.21
2023-05-16T17:10:08.070Z,25.19
2023-05-16T17:12:35.296Z,25.14
2023-05-16T17:15:02.564Z,25.14
2023-05-16T17:17:30.044Z,25.10
2023-05-16T17:19:57.532Z,25.05
2023-05-16T17:22:24.727Z,24.98
2023-05-16T17:24:52.078Z,24.91
2023-05-16T17:27:19.460Z,24.78
2023-05-16T17:29:46.533Z,24.76
2023-05-16T17:32:13.997Z,24.67
2023-05-16T17:34:41.126Z,24.63
2023-05-16T17:37:10.728Z,24.63
2023-05-16T17:39:38.148Z,24.57
2023-05-16T17:42:09.432Z,24.45
2023-05-16T17:44:37.020Z,24.37
2023-05-16T17:47:04.381Z,24.34
2023-05-16T17:49:31.682Z,24.29
2023-05-16T17:51:59.330Z,24.27
2023-05-16T17:54:30.852Z,24.20
2023-05-16T17:56:58.220Z,24.09
2023-05-16T17:59:27.595Z,24.00
2023-05-16T18:01:56.476Z,23.96
2023-05-16T18:04:24.134Z,23.91
2023-05-16T18:06:54.699Z,23.85
2023-05-16T18:09:22.596Z,23.85
2023-05-16T18:11:51.040Z,23.76
2023-05-16T18:14:18.223Z,23.69
2023-05-16T18:16:45.447Z,23.61
2023-05-16T18:19:12.837Z,23.57
2023-05-16T18:21:41.287Z,23.53
2023-05-16T18:24:08.814Z,23.48
2023-05-16T18:26:36.439Z,23.40
2023-05-16T18:29:03.902Z,23.34
2023-05-16T18:31:33.913Z,23.29
2023-05-16T18:34:04.103Z,23.20
2023-05-16T18:36:31.476Z,23.14
2023-05-16T18:38:58.906Z,23.08
2023-05-16T18:41:26.465Z,23.02
2023-05-16T18:43:53.590Z,22.99
2023-05-16T18:46:20.895Z,22.97
2023-05-16T18:48:48.096Z,22.92
2023-05-16T18:51:15.260Z,22.89
2023-05-16T18:53:42.608Z,22.79
2023-05-16T18:56:11.758Z,22.71
2023-05-16T18:58:39.245Z,22.68
2023-05-16T19:01:06.543Z,22.66
2023-05-16T19:03:33.865Z,22.63
2023-05-16T19:06:01.180Z,22.59
2023-05-16T19:08:36.753Z,22.53
2023-05-16T19:11:14.461Z,22.51
2023-05-16T19:13:41.821Z,22.49
2023-05-16T19:16:09.369Z,22.44
2023-05-16T19:18:37.499Z,22.42
2023-05-16T19:21:04.949Z,22.43
2023-05-16T19:23:32.422Z,22.46
2023-05-16T19:26:00.501Z,22.47
2023-05-16T19:28:27.682Z,22.47
2023-05-16T19:30:54.753Z,22.45
2023-05-16T19:33:22.004Z,22.44
2023-05-16T19:35:51.718Z,22.43
2023-05-16T19:38:20.004Z,22.42
2023-05-16T19:40:47.587Z,22.39
2023-05-16T19:43:15.028Z,22.40
2023-05-16T19:45:42.273Z,22.38
2023-05-16T19:48:09.737Z,22.34
2023-05-16T19:50:37.080Z,22.29
2023-05-16T19:53:04.322Z,22.30
2023-05-16T19:55:31.997Z,22.28
2023-05-16T19:57:59.518Z,22.29
2023-05-16T20:00:26.885Z,22.28
2023-05-16T20:02:54.151Z,22.26
2023-05-16T20:05:23.574Z,22.24
2023-05-16T20:07:50.889Z,22.20
2023-05-16T20:10:19.774Z,22.17
2023-05-16T20:12:48.704Z,22.15
2023-05-16T20:15:16.495Z,22.11
2023-05-16T20:17:43.674Z,22.07
2023-05-16T20:20:11.093Z,22.04
2023-05-16T20:22:42.011Z,22.04
2023-05-16T20:25:10.247Z,22.00
2023-05-16T20:27:38.143Z,21.93
2023-05-16T20:30:06.840Z,21.90
2023-05-16T20:32:34.425Z,21.94
2023-05-16T20:35:04.616Z,21.93
2023-05-16T20:37:32.034Z,21.91
2023-05-16T20:39:59.110Z,21.92
2023-05-16T20:42:26.624Z,21.91
2023-05-16T20:44:53.646Z,21.90
2023-05-16T20:47:20.639Z,21.88
2023-05-16T20:49:47.869Z,21.89
2023-05-16T20:52:14.957Z,21.90
2023-05-16T20:54:42.186Z,21.87
2023-05-16T20:57:09.481Z,21.84
2023-05-16T20:59:37.877Z,21.76
2023-05-16T21:02:06.337Z,21.74
2023-05-16T21:04:33.646Z,21.71
2023-05-16T21:07:00.822Z,21.65
2023-05-16T21:09:27.930Z,21.58
2023-05-16T21:11:55.101Z,21.54
2023-05-16T21:14:22.440Z,21.48
2023-05-16T21:16:49.530Z,21.43
2023-05-16T21:19:16.952Z,21.36
2023-05-16T21:21:44.200Z,21.35
2023-05-16T21:24:11.299Z,21.32
2023-05-16T21:26:39.046Z,21.28
2023-05-16T21:29:06.285Z,21.25
2023-05-16T21:31:33.326Z,21.22
2023-05-16T21:34:01.065Z,21.15
2023-05-16T21:36:28.190Z,21.11
2023-05-16T21:38:55.502Z,21.06
2023-05-16T21:41:23.407Z,21.01
2023-05-16T21:43:50.418Z,20.97
2023-05-16T21:46:17.469Z,20.92
2023-05-16T21:48:44.733Z,20.87
2023-05-16T21:51:12.189Z,20.81
2023-05-16T21:53:39.366Z,20.72
2023-05-16T21:56:06.600Z,20.66
2023-05-16T21:58:33.737Z,20.59
2023-05-16T22:01:00.765Z,20.56
2023-05-16T22:04:37.641Z,19.81
2023-05-16T22:07:05.250Z,20.63
2023-05-16T22:09:32.330Z,20.58
2023-05-16T22:11:59.750Z,20.55
2023-05-16T22:14:26.899Z,20.54
2023-05-16T22:16:54.180Z,20.53
2023-05-16T22:19:21.373Z,20.54
2023-05-16T22:21:48.430Z,20.54
2023-05-16T22:24:15.514Z,20.52
2023-05-16T22:26:42.718Z,20.54
2023-05-16T22:29:10.175Z,20.56
2023-05-16T22:31:37.331Z,20.61
2023-05-16T22:34:04.783Z,20.66
2023-05-16T22:36:32.040Z,20.68
2023-05-16T22:38:59.373Z,20.69
2023-05-16T22:41:29.212Z,20.72
2023-05-16T22:43:56.299Z,20.75
2023-05-16T22:46:23.670Z,20.78
2023-05-16T22:48:50.833Z,20.81
2023-05-16T22:51:18.173Z,20.83
2023-05-16T22:53:45.433Z,20.85
2023-05-16T22:56:12.609Z,20.87
2023-05-16T22:58:39.812Z,20.89
2023-05-16T23:01:07.038Z,20.93
2023-05-16T23:03:34.436Z,20.96
2023-05-16T23:06:01.859Z,20.97
2023-05-16T23:08:29.040Z,20.99
2023-05-16T23:10:56.300Z,21.02
2023-05-16T23:13:23.600Z,21.05
2023-05-16T23:15:50.670Z,21.09
2023-05-16T23:18:18.156Z,21.13
2023-05-16T23:20:45.432Z,21.11
2023-05-16T23:23:12.499Z,21.11
2023-05-16T23:25:39.634Z,21.10
2023-05-16T23:28:06.685Z,21.12
2023-05-16T23:30:34.409Z,21.15
2023-05-16T23:33:01.645Z,21.19
2023-05-16T23:35:29.070Z,21.19
2023-05-16T23:37:56.395Z,21.21
2023-05-16T23:40:23.572Z,21.28
2023-05-16T23:42:51.468Z,21.30
2023-05-16T23:45:18.490Z,21.31
2023-05-16T23:47:46.179Z,21.35
2023-05-16T23:50:13.413Z,21.36
2023-05-16T23:52:40.512Z,21.44
2023-05-16T23:55:08.248Z,21.44
2023-05-16T23:57:35.483Z,21.42
